createdAt,value
2022-08-26T00:01:56.928Z,100805.56
2022-08-26T00:04:25.657Z,100818.00
2022-08-26T00:06:53.797Z,100784.03
2022-08-26T00:09:21.026Z,100813.47
2022-08-26T00:11:47.690Z,100812.28
2022-08-26T00:14:15.850Z,100805.22
2022-08-26T00:16:48.185Z,100832.31
2022-08-26T00:19:17.082Z,100807.47
2022-08-26T00:21:44.118Z,100818.22
2022-08-26T00:24:10.937Z,100801.56
2022-08-26T00:26:37.594Z,100824.75
2022-08-26T00:29:04.516Z,100803.19
2022-08-26T00:31:32.608Z,100805.56
2022-08-26T00:33:59.693Z,100810.16
2022-08-26T00:36:29.716Z,100763.34
2022-08-26T00:38:58.115Z,100808.63
2022-08-26T00:41:24.693Z,100806.50
2022-08-26T00:43:53.132Z,100764.84
2022-08-26T00:46:28.762Z,100751.13
2022-08-26T00:49:05.356Z,100819.72
2022-08-26T00:51:45.403Z,100820.44
2022-08-26T00:54:12.815Z,100816.41
2022-08-26T00:56:50.700Z,100819.13
2022-08-26T00:59:18.045Z,100819.41
2022-08-26T01:01:45.912Z,100802.00
2022-08-26T01:04:17.890Z,100800.69
2022-08-26T01:06:45.140Z,100807.91
2022-08-26T01:09:12.200Z,100785.56
2022-08-26T01:11:39.811Z,100800.47
2022-08-26T01:14:08.761Z,100804.25
2022-08-26T01:16:36.629Z,100744.19
2022-08-26T01:19:15.999Z,100735.53
2022-08-26T01:21:50.127Z,100797.84
2022-08-26T01:24:18.270Z,100791.09
2022-08-26T01:26:45.766Z,100780.22
2022-08-26T01:29:16.339Z,100800.94
2022-08-26T01:31:47.938Z,100795.94
2022-08-26T01:34:25.883Z,100793.00
2022-08-26T01:37:01.656Z,100757.69
2022-08-26T01:39:28.929Z,100794.09
2022-08-26T01:41:58.174Z,100806.91
2022-08-26T01:44:39.187Z,100794.59
2022-08-26T01:47:07.116Z,100796.13
2022-08-26T01:49:36.655Z,100784.41
2022-08-26T01:52:05.814Z,100776.59
2022-08-26T01:54:33.220Z,100795.91
2022-08-26T01:57:00.992Z,100795.31
2022-08-26T01:59:30.368Z,100783.22
2022-08-26T02:01:57.342Z,100793.19
2022-08-26T02:04:59.610Z,100791.50
2022-08-26T02:07:27.934Z,100783.81
2022-08-26T02:09:55.160Z,100788.19
2022-08-26T02:12:22.470Z,100787.63
2022-08-26T02:14:59.660Z,100780.03
2022-08-26T02:17:33.867Z,100790.66
2022-08-26T02:20:02.530Z,100795.09
2022-08-26T02:22:31.048Z,100759.19
2022-08-26T02:25:02.348Z,100752.81
2022-08-26T02:27:32.880Z,100793.88
2022-08-26T02:30:17.226Z,100796.69
2022-08-26T02:32:44.431Z,100795.28
2022-08-26T02:35:13.856Z,100764.53
2022-08-26T02:37:49.540Z,100779.53
2022-08-26T02:40:21.484Z,100790.31
2022-08-26T02:42:49.540Z,100793.88
2022-08-26T02:45:23.280Z,100786.88
2022-08-26T02:47:51.583Z,100765.13
2022-08-26T02:50:19.235Z,100718.38
2022-08-26T02:52:45.903Z,100791.13
2022-08-26T02:55:12.624Z,100789.00
2022-08-26T02:57:39.489Z,100794.34
2022-08-26T03:00:09.230Z,100800.38
2022-08-26T03:02:35.885Z,100781.19
2022-08-26T03:05:02.928Z,100799.53
2022-08-26T03:07:30.402Z,100803.88
2022-08-26T03:09:58.230Z,100811.66
2022-08-26T03:12:25.686Z,100804.03
2022-08-26T03:14:52.774Z,100783.75
2022-08-26T03:17:19.418Z,100793.22
2022-08-26T03:19:46.047Z,100802.44
2022-08-26T03:22:14.554Z,100804.56
2022-08-26T03:24:42.163Z,100806.75
2022-08-26T03:27:13.346Z,100787.88
2022-08-26T03:30:00.184Z,100812.03
2022-08-26T03:32:28.051Z,100726.50
2022-08-26T03:34:56.482Z,100782.13
2022-08-26T03:37:23.128Z,100796.06
2022-08-26T03:39:49.942Z,100802.31
2022-08-26T03:42:16.961Z,100804.16
2022-08-26T03:44:43.806Z,100775.19
2022-08-26T03:47:11.124Z,100802.19
2022-08-26T03:49:38.081Z,100794.34
2022-08-26T03:52:05.169Z,100768.09
2022-08-26T03:54:32.547Z,100797.53
2022-08-26T03:56:59.089Z,100757.84
2022-08-26T03:59:25.980Z,100790.41
2022-08-26T04:01:52.641Z,100793.13
2022-08-26T04:04:22.602Z,100760.41
2022-08-26T04:06:50.248Z,100793.13
2022-08-26T04:09:20.969Z,100792.00
2022-08-26T04:11:50.376Z,100789.44
2022-08-26T04:14:20.745Z,100804.53
2022-08-26T04:16:48.252Z,100781.06
2022-08-26T04:19:16.433Z,100742.03
2022-08-26T04:21:44.187Z,100794.19
2022-08-26T04:24:13.971Z,100796.38
2022-08-26T04:26:42.813Z,100795.63
2022-08-26T04:29:17.665Z,100787.16
2022-08-26T04:31:44.847Z,100796.63
2022-08-26T04:34:11.683Z,100785.28
2022-08-26T04:36:41.121Z,100772.47
2022-08-26T04:39:12.113Z,100728.94
2022-08-26T04:41:40.078Z,100779.41
2022-08-26T04:44:07.790Z,100779.50
2022-08-26T04:46:35.355Z,100784.16
2022-08-26T04:49:08.829Z,100697.97
2022-08-26T04:51:36.756Z,100743.13
2022-08-26T04:54:06.979Z,100703.34
2022-08-26T04:56:37.696Z,100776.75
2022-08-26T04:59:08.021Z,100773.81
2022-08-26T05:01:45.541Z,100786.56
2022-08-26T05:04:13.260Z,100785.81
2022-08-26T05:06:43.063Z,100767.34
2022-08-26T05:09:10.014Z,100697.53
2022-08-26T05:11:38.109Z,100792.41
2022-08-26T05:14:06.032Z,100752.91
2022-08-26T05:16:32.668Z,100797.81
2022-08-26T05:18:59.689Z,100780.31
2022-08-26T05:21:29.017Z,100788.25
2022-08-26T05:23:56.476Z,100798.56
2022-08-26T05:26:26.544Z,100775.63
2022-08-26T05:28:54.731Z,100791.38
2022-08-26T05:31:28.450Z,100710.94
2022-08-26T05:33:57.637Z,100789.88
2022-08-26T05:36:27.849Z,100749.47
2022-08-26T05:38:55.725Z,100742.34
2022-08-26T05:41:34.219Z,100735.47
2022-08-26T05:44:06.202Z,100795.94
2022-08-26T05:46:33.949Z,100792.78
2022-08-26T05:49:01.599Z,100757.81
2022-08-26T05:51:30.353Z,100761.16
2022-08-26T05:53:57.269Z,100792.09
2022-08-26T05:56:27.522Z,100779.09
2022-08-26T05:58:55.932Z,100782.19
2022-08-26T06:01:26.331Z,100773.66
2022-08-26T06:03:57.581Z,100796.41
2022-08-26T06:06:32.839Z,100801.97
2022-08-26T06:09:01.258Z,100736.75
2022-08-26T06:11:29.609Z,100807.44
2022-08-26T06:14:03.627Z,100809.56
2022-08-26T06:16:33.490Z,100735.59
2022-08-26T06:19:02.899Z,100810.31
2022-08-26T06:21:32.540Z,100775.41
2022-08-26T06:24:21.492Z,100786.19
2022-08-26T06:26:57.578Z,100773.03
2022-08-26T06:29:25.970Z,100810.78
2022-08-26T06:31:56.447Z,100814.09
2022-08-26T06:34:26.737Z,100785.13
2022-08-26T06:37:06.449Z,100750.44
2022-08-26T06:39:33.533Z,100798.91
2022-08-26T06:42:00.996Z,100799.75
2022-08-26T06:44:29.843Z,100785.81
2022-08-26T06:46:56.505Z,100784.84
2022-08-26T06:49:26.979Z,100802.00
2022-08-26T06:51:55.368Z,100804.59
2022-08-26T06:54:22.373Z,100806.38
2022-08-26T06:56:49.595Z,100787.06
2022-08-26T06:59:16.287Z,100783.78
2022-08-26T07:01:47.279Z,100739.66
2022-08-26T07:04:21.835Z,100811.78
2022-08-26T07:06:49.335Z,100806.22
2022-08-26T07:09:17.408Z,100810.84
2022-08-26T07:11:45.070Z,100722.09
2022-08-26T07:14:12.436Z,100658.97
2022-08-26T07:16:39.663Z,100815.91
2022-08-26T07:19:11.267Z,100813.22
2022-08-26T07:21:40.451Z,100814.53
2022-08-26T07:24:07.757Z,100818.34
2022-08-26T07:26:34.860Z,100821.66
2022-08-26T07:29:02.010Z,100824.66
2022-08-26T07:31:39.185Z,100826.84
2022-08-26T07:34:07.719Z,100825.31
2022-08-26T07:36:34.887Z,100819.53
2022-08-26T07:39:01.530Z,100822.34
2022-08-26T07:43:56.774Z,100837.72
2022-08-26T07:46:27.492Z,100809.38
2022-08-26T07:48:58.075Z,100840.16
2022-08-26T07:51:25.073Z,100813.16
2022-08-26T07:53:52.434Z,100829.56
2022-08-26T07:56:20.121Z,100798.66
2022-08-26T07:58:51.335Z,100826.50
2022-08-26T08:01:23.974Z,100832.09
2022-08-26T08:03:52.349Z,100838.97
2022-08-26T08:06:27.135Z,100837.28
2022-08-26T08:08:55.259Z,100825.63
2022-08-26T08:11:23.184Z,100822.06
2022-08-26T08:13:56.338Z,100790.72
2022-08-26T08:16:26.197Z,100840.03
2022-08-26T08:18:53.504Z,100815.97
2022-08-26T08:21:22.021Z,100829.53
2022-08-26T08:23:55.384Z,100837.31
2022-08-26T08:26:24.072Z,100841.84
2022-08-26T08:28:53.644Z,100836.41
2022-08-26T08:34:21.518Z,100840.47
2022-08-26T08:36:48.647Z,100845.28
2022-08-26T08:39:16.804Z,100801.38
2022-08-26T08:42:04.322Z,100827.41
2022-08-26T08:44:31.132Z,100840.63
2022-08-26T08:47:06.167Z,100841.66
2022-08-26T08:49:34.054Z,100840.63
2022-08-26T08:52:19.948Z,100834.19
2022-08-26T08:54:46.694Z,100780.44
2022-08-26T08:57:24.470Z,100836.00
2022-08-26T09:00:04.467Z,100834.94
2022-08-26T09:02:42.248Z,100818.78
2022-08-26T09:05:16.198Z,100818.06
2022-08-26T09:07:52.893Z,100812.00
2022-08-26T09:10:43.317Z,100780.25
2022-08-26T09:13:16.848Z,100774.94
2022-08-26T09:16:26.051Z,100811.66
2022-08-26T09:19:23.998Z,100810.88
2022-08-26T09:22:02.242Z,100805.13
2022-08-26T09:24:40.867Z,100782.72
2022-08-26T09:27:08.952Z,100805.81
2022-08-26T09:29:44.341Z,100792.69
2022-08-26T09:32:24.399Z,100796.22
2022-08-26T09:34:58.190Z,100785.47
2022-08-26T09:37:36.283Z,100772.88
2022-08-26T09:40:29.748Z,100784.59
2022-08-26T09:43:09.715Z,100781.19
2022-08-26T09:45:40.138Z,100788.66
2022-08-26T09:48:08.302Z,100781.47
2022-08-26T09:50:39.971Z,100787.38
2022-08-26T09:53:21.068Z,100790.16
2022-08-26T09:56:12.750Z,100776.97
2022-08-26T09:58:41.934Z,100797.00
2022-08-26T10:01:16.319Z,100749.59
2022-08-26T10:03:43.400Z,100700.25
2022-08-26T10:06:13.067Z,100773.66
2022-08-26T10:08:47.632Z,100779.56
2022-08-26T10:11:24.380Z,100771.97
2022-08-26T10:14:02.370Z,100764.59
2022-08-26T10:16:36.494Z,100697.09
2022-08-26T10:19:09.882Z,100719.97
2022-08-26T10:21:44.464Z,100749.88
2022-08-26T10:24:19.141Z,100729.84
2022-08-26T10:27:07.872Z,100761.41
2022-08-26T10:29:46.463Z,100755.91
2022-08-26T10:32:31.613Z,100758.63
2022-08-26T10:35:00.335Z,100717.97
2022-08-26T10:37:35.521Z,100754.09
2022-08-26T10:40:11.208Z,100735.97
2022-08-26T10:43:11.044Z,100740.25
2022-08-26T10:45:53.357Z,100712.47
2022-08-26T10:48:23.082Z,100744.41
2022-08-26T10:50:50.239Z,100737.22
2022-08-26T10:53:19.744Z,100738.81
2022-08-26T10:56:05.478Z,100738.69
2022-08-26T10:58:41.296Z,100689.88
2022-08-26T11:01:43.768Z,100710.47
2022-08-26T11:04:38.619Z,100736.94
2022-08-26T11:07:38.281Z,100730.00
2022-08-26T11:10:29.913Z,100681.72
2022-08-26T11:13:03.804Z,100708.53
2022-08-26T11:15:30.910Z,100712.66
2022-08-26T11:18:01.476Z,100649.09
2022-08-26T11:20:45.998Z,100711.69
2022-08-26T11:23:13.838Z,100709.91
2022-08-26T11:26:02.065Z,100703.31
2022-08-26T11:28:36.135Z,100682.00
2022-08-26T11:31:05.578Z,100701.06
2022-08-26T11:33:57.009Z,100695.81
2022-08-26T11:36:42.797Z,100697.69
2022-08-26T11:39:49.346Z,100692.34
2022-08-26T11:42:43.365Z,100677.00
2022-08-26T11:45:18.531Z,100696.78
2022-08-26T11:47:46.641Z,100683.13
2022-08-26T11:50:20.584Z,100683.34
2022-08-26T11:52:51.856Z,100659.63
2022-08-26T11:55:19.223Z,100671.22
2022-08-26T11:57:52.558Z,100630.59
2022-08-26T12:00:24.199Z,100671.50
2022-08-26T12:02:52.388Z,100678.91
2022-08-26T12:05:30.986Z,100669.59
2022-08-26T12:08:03.168Z,100664.66
2022-08-26T12:10:33.701Z,100651.38
2022-08-26T12:13:01.566Z,100660.88
2022-08-26T12:15:32.153Z,100603.63
2022-08-26T12:18:15.875Z,100658.53
2022-08-26T12:20:46.522Z,100595.72
2022-08-26T12:23:40.629Z,100585.69
2022-08-26T12:26:30.312Z,100573.75
2022-08-26T12:28:58.686Z,100636.09
2022-08-26T12:31:40.453Z,100626.47
2022-08-26T12:34:17.468Z,100637.53
2022-08-26T12:36:48.932Z,100621.78
2022-08-26T12:39:29.504Z,100629.31
2022-08-26T12:42:03.397Z,100623.91
2022-08-26T12:44:58.619Z,100604.19
2022-08-26T12:47:42.943Z,100599.50
2022-08-26T12:50:24.572Z,100573.34
2022-08-26T12:53:00.470Z,100594.75
2022-08-26T12:55:54.041Z,100570.75
2022-08-26T12:58:36.970Z,100596.53
2022-08-26T13:01:07.040Z,100591.81
2022-08-26T13:03:34.903Z,100532.72
2022-08-26T13:06:25.941Z,100577.44
2022-08-26T13:08:54.316Z,100528.09
2022-08-26T13:11:32.409Z,100596.00
2022-08-26T13:14:08.165Z,100580.66
2022-08-26T13:16:37.380Z,100549.66
2022-08-26T13:19:10.397Z,100513.50
2022-08-26T13:21:58.985Z,100547.72
2022-08-26T13:24:38.669Z,100547.50
2022-08-26T13:27:07.482Z,100559.78
2022-08-26T13:29:36.817Z,100508.44
2022-08-26T13:32:05.482Z,100555.78
2022-08-26T13:34:35.812Z,100527.22
2022-08-26T13:37:02.717Z,100464.66
2022-08-26T13:39:29.400Z,100557.63
2022-08-26T13:41:56.399Z,100533.03
2022-08-26T13:44:23.108Z,100528.94
2022-08-26T13:46:49.944Z,100550.38
2022-08-26T13:49:16.751Z,100543.41
2022-08-26T13:51:46.309Z,100542.03
2022-08-26T13:54:13.055Z,100546.56
2022-08-26T13:56:39.855Z,100546.09
2022-08-26T13:59:06.754Z,100535.81
2022-08-26T14:01:34.989Z,100535.88
2022-08-26T14:04:02.694Z,100544.69
2022-08-26T14:06:30.095Z,100521.97
2022-08-26T14:08:56.894Z,100488.16
2022-08-26T14:11:25.092Z,100517.03
2022-08-26T14:13:52.613Z,100508.41
2022-08-26T14:16:36.301Z,100515.56
2022-08-26T14:19:18.042Z,100515.13
2022-08-26T14:21:51.235Z,100505.94
2022-08-26T14:24:17.842Z,100499.31
2022-08-26T14:26:44.514Z,100507.44
2022-08-26T14:29:14.642Z,100473.91
2022-08-26T14:31:43.639Z,100478.72
2022-08-26T14:34:13.102Z,100464.50
2022-08-26T14:36:39.831Z,100433.41
2022-08-26T14:39:10.066Z,100470.97
2022-08-26T14:41:54.508Z,100485.38
2022-08-26T14:44:25.893Z,100476.13
2022-08-26T14:46:53.502Z,100439.56
2022-08-26T14:49:22.234Z,100438.69
2022-08-26T14:51:49.323Z,100468.22
2022-08-26T14:54:18.311Z,100463.91
2022-08-26T14:56:49.340Z,100477.09
2022-08-26T14:59:21.909Z,100463.97
2022-08-26T15:01:49.169Z,100417.69
2022-08-26T15:04:16.329Z,100342.91
2022-08-26T15:06:43.417Z,100478.91
2022-08-26T15:09:11.163Z,100473.53
2022-08-26T15:11:38.254Z,100478.53
2022-08-26T15:14:19.107Z,100483.53
2022-08-26T15:16:59.100Z,100481.94
2022-08-26T15:19:26.585Z,100480.91
2022-08-26T15:21:53.345Z,100454.06
2022-08-26T15:24:28.961Z,100472.38
2022-08-26T15:26:56.145Z,100437.09
2022-08-26T15:29:26.595Z,100477.59
2022-08-26T15:31:55.270Z,100481.50
2022-08-26T15:34:24.257Z,100467.00
2022-08-26T15:36:50.995Z,100434.59
2022-08-26T15:39:19.043Z,100460.34
2022-08-26T15:41:46.396Z,100488.81
2022-08-26T15:44:19.959Z,100485.94
2022-08-26T15:46:48.512Z,100430.38
2022-08-26T15:49:17.744Z,100503.69
2022-08-26T15:51:48.139Z,100500.44
2022-08-26T15:54:21.041Z,100479.13
2022-08-26T15:57:14.364Z,100514.25
2022-08-26T15:59:42.035Z,100498.06
2022-08-26T16:02:10.877Z,100441.53
2022-08-26T16:04:37.684Z,100455.13
2022-08-26T16:07:04.791Z,100511.53
2022-08-26T16:09:32.665Z,100459.59
2022-08-26T16:11:59.418Z,100513.72
2022-08-26T16:14:26.597Z,100485.94
2022-08-26T16:16:53.530Z,100442.25
2022-08-26T16:19:24.779Z,100394.13
2022-08-26T16:21:51.871Z,100484.69
2022-08-26T16:24:25.904Z,100515.28
2022-08-26T16:26:54.553Z,100518.34
2022-08-26T16:29:21.371Z,100511.19
2022-08-26T16:31:50.598Z,100474.50
2022-08-26T16:34:17.535Z,100471.75
2022-08-26T16:36:44.446Z,100493.09
2022-08-26T16:39:11.219Z,100405.84
2022-08-26T16:41:38.040Z,100484.94
2022-08-26T16:44:05.742Z,100494.25
2022-08-26T16:46:33.863Z,100490.34
2022-08-26T16:49:03.627Z,100499.19
2022-08-26T16:51:32.444Z,100512.84
2022-08-26T16:54:08.804Z,100512.94
2022-08-26T16:56:35.812Z,100500.84
2022-08-26T16:59:05.037Z,100501.97
2022-08-26T17:01:32.153Z,100467.00
2022-08-26T17:03:58.864Z,100476.84
2022-08-26T17:06:25.476Z,100499.25
2022-08-26T17:08:53.135Z,100491.56
2022-08-26T17:11:19.838Z,100451.06
2022-08-26T17:13:46.512Z,100477.56
2022-08-26T17:16:13.999Z,100375.56
2022-08-26T17:18:43.210Z,100453.00
2022-08-26T17:21:12.305Z,100483.41
2022-08-26T17:23:41.013Z,100480.44
2022-08-26T17:26:09.190Z,100472.50
2022-08-26T17:28:37.077Z,100375.16
2022-08-26T17:31:05.018Z,100407.22
2022-08-26T17:33:34.181Z,100471.25
2022-08-26T17:36:05.031Z,100480.56
2022-08-26T17:38:34.892Z,100484.66
2022-08-26T17:41:08.914Z,100461.91
2022-08-26T17:43:35.955Z,100481.09
2022-08-26T17:46:16.223Z,100337.97
2022-08-26T17:48:53.492Z,100410.28
2022-08-26T17:51:27.151Z,100313.94
2022-08-26T17:54:01.936Z,100353.09
2022-08-26T17:56:31.772Z,100373.09
2022-08-26T17:59:03.982Z,100338.31
2022-08-26T18:01:34.501Z,100415.75
2022-08-26T18:04:04.046Z,100480.13
2022-08-26T18:06:35.062Z,100308.22
2022-08-26T18:09:11.238Z,100407.09
2022-08-26T18:11:41.119Z,100485.97
2022-08-26T18:14:30.716Z,100406.00
2022-08-26T18:17:05.996Z,100414.81
2022-08-26T18:19:39.887Z,100275.66
2022-08-26T18:22:07.148Z,100305.78
2022-08-26T18:24:34.902Z,100433.13
2022-08-26T18:27:02.002Z,100493.69
2022-08-26T18:29:30.704Z,100354.81
2022-08-26T18:37:31.777Z,100363.25
2022-08-26T18:40:08.515Z,100441.09
2022-08-26T18:42:40.991Z,100464.06
2022-08-26T18:45:16.592Z,100396.91
2022-08-26T18:47:43.482Z,100500.78
2022-08-26T18:50:11.263Z,100436.38
2022-08-26T18:52:47.646Z,100509.31
2022-08-26T18:55:22.937Z,100411.41
2022-08-26T18:57:54.962Z,100514.75
2022-08-26T19:00:22.033Z,100481.88
2022-08-26T19:02:52.430Z,100441.00
2022-08-26T19:05:36.063Z,100502.72
2022-08-26T19:08:02.944Z,100444.00
2022-08-26T19:10:45.354Z,100277.66
2022-08-26T19:13:27.731Z,100508.47
2022-08-26T19:15:57.955Z,100501.59
2022-08-26T19:18:25.553Z,100502.41
2022-08-26T19:20:55.405Z,100386.72
2022-08-26T19:23:31.893Z,100512.56
2022-08-26T19:26:10.067Z,100498.53
2022-08-26T19:28:49.370Z,100460.38
2022-08-26T19:31:23.037Z,100512.78
2022-08-26T19:33:58.900Z,100428.84
2022-08-26T19:36:29.570Z,100403.81
2022-08-26T19:39:29.617Z,100395.31
2022-08-26T19:45:18.319Z,100427.94
2022-08-26T19:47:59.302Z,100470.09
2022-08-26T19:50:35.264Z,100453.63
2022-08-26T19:53:08.909Z,100452.16
2022-08-26T19:55:45.030Z,100418.13
2022-08-26T19:58:22.810Z,100546.56
2022-08-26T20:00:54.731Z,100367.31
2022-08-26T20:03:31.355Z,100538.22
2022-08-26T20:06:01.326Z,100480.84
2022-08-26T20:08:31.193Z,100392.94
2022-08-26T20:11:13.121Z,100487.09
2022-08-26T20:13:49.757Z,100478.88
2022-08-26T20:16:20.249Z,100546.88
2022-08-26T20:19:16.290Z,100419.72
2022-08-26T20:21:50.067Z,100538.53
2022-08-26T20:24:21.280Z,100446.81
2022-08-26T20:26:50.387Z,100375.13
2022-08-26T20:29:24.249Z,100432.47
2022-08-26T20:34:58.198Z,100567.00
2022-08-26T20:37:29.325Z,100492.50
2022-08-26T20:39:56.357Z,100492.25
2022-08-26T20:42:29.606Z,100545.56
2022-08-26T20:45:06.487Z,100476.31
2022-08-26T20:47:33.708Z,100327.78
2022-08-26T20:50:00.557Z,100553.22
2022-08-26T20:52:27.630Z,100554.84
2022-08-26T20:54:54.427Z,100486.63
2022-08-26T20:57:23.529Z,100559.94
2022-08-26T20:59:50.621Z,100525.81
2022-08-26T21:02:17.294Z,100562.97
2022-08-26T21:04:44.139Z,100546.41
2022-08-26T21:07:10.870Z,100555.16
2022-08-26T21:09:37.570Z,100549.97
2022-08-26T21:12:05.484Z,100519.19
2022-08-26T21:14:32.239Z,100542.53
2022-08-26T21:16:59.617Z,100455.56
2022-08-26T21:19:26.757Z,100555.63
2022-08-26T21:21:53.407Z,100520.38
2022-08-26T21:24:20.129Z,100558.31
2022-08-26T21:26:47.505Z,100453.91
2022-08-26T21:29:14.681Z,100515.94
2022-08-26T21:31:46.032Z,100541.59
2022-08-26T21:34:17.998Z,100552.84
2022-08-26T21:36:48.946Z,100547.09
2022-08-26T21:39:16.172Z,100448.03
2022-08-26T21:41:43.888Z,100539.03
2022-08-26T21:44:12.046Z,100543.47
2022-08-26T21:46:39.131Z,100549.47
2022-08-26T21:49:08.954Z,100546.44
2022-08-26T21:51:39.357Z,100547.28
2022-08-26T21:54:10.781Z,100541.81
2022-08-26T21:56:42.024Z,100541.47
2022-08-26T21:59:09.163Z,100545.59
2022-08-26T22:01:37.844Z,100531.59
2022-08-26T22:04:08.145Z,100451.88
2022-08-26T22:06:39.555Z,100490.56
2022-08-26T22:09:06.307Z,100546.56
2022-08-26T22:11:33.174Z,100545.44
2022-08-26T22:13:59.964Z,100435.91
2022-08-26T22:16:28.759Z,100539.50
2022-08-26T22:18:55.719Z,100451.78
2022-08-26T22:21:24.677Z,100519.72
2022-08-26T22:23:51.707Z,100522.69
2022-08-26T22:26:25.727Z,100526.00
2022-08-26T22:28:58.696Z,100486.44
2022-08-26T22:31:31.004Z,100500.25
2022-08-26T22:34:08.040Z,100510.41
2022-08-26T22:36:35.289Z,100545.75
2022-08-26T22:39:02.269Z,100481.22
2022-08-26T22:41:29.020Z,100532.59
2022-08-26T22:44:01.075Z,100546.31
2022-08-26T22:46:27.699Z,100525.94
2022-08-26T22:48:55.222Z,100453.84
2022-08-26T22:51:23.183Z,100535.06
2022-08-26T22:53:49.944Z,100488.47
2022-08-26T22:56:18.443Z,100550.00
2022-08-26T22:58:45.658Z,100556.47
2022-08-26T23:01:12.858Z,100551.03
2022-08-26T23:03:39.843Z,100529.25
2022-08-26T23:06:09.507Z,100525.00
2022-08-26T23:08:37.284Z,100553.53
2022-08-26T23:11:10.943Z,100532.03
2022-08-26T23:13:38.817Z,100318.03
2022-08-26T23:16:09.576Z,100535.09
2022-08-26T23:18:36.926Z,100546.13
2022-08-26T23:21:03.784Z,100526.81
2022-08-26T23:23:31.265Z,100527.03
2022-08-26T23:25:58.570Z,100511.66
2022-08-26T23:28:26.579Z,100551.03
2022-08-26T23:30:54.028Z,100549.75
2022-08-26T23:33:21.005Z,100539.31
2022-08-26T23:35:47.690Z,100533.25
2022-08-26T23:38:15.085Z,100491.47
2022-08-26T23:40:41.995Z,100540.19
2022-08-26T23:43:11.618Z,100555.09
2022-08-26T23:45:38.940Z,100550.69
2022-08-26T23:48:06.742Z,100496.28
2022-08-26T23:50:51.984Z,100424.28
2022-08-26T23:53:22.035Z,100505.38
2022-08-26T23:55:51.421Z,100547.81
2022-08-26T23:58:20.387Z,100546.59
